createdAt,value
2019-03-10T00:01:09.462Z,10.776978
2019-03-10T00:02:18.966Z,10.756836
2019-03-10T00:03:28.471Z,10.80719
2019-03-10T00:04:37.980Z,10.776978
2019-03-10T00:05:47.495Z,10.756836
2019-03-10T00:06:57.038Z,10.776978
2019-03-10T00:08:07.924Z,10.776978
2019-03-10T00:09:16.064Z,10.776978
2019-03-10T00:10:25.563Z,10.80719
2019-03-10T00:11:35.092Z,10.80719
2019-03-10T00:12:44.600Z,10.787048
2019-03-10T00:13:54.147Z,10.756836
2019-03-10T00:15:03.609Z,10.746765
2019-03-10T00:16:13.148Z,10.746765
2019-03-10T00:17:22.650Z,10.756836
2019-03-10T00:18:32.150Z,10.776978
2019-03-10T00:19:41.659Z,10.756836
2019-03-10T00:20:51.163Z,10.736694
2019-03-10T00:22:00.687Z,10.746765
2019-03-10T00:23:10.188Z,10.706482
2019-03-10T00:24:19.688Z,10.706482
2019-03-10T00:25:29.194Z,10.736694
2019-03-10T00:26:38.715Z,10.706482
2019-03-10T00:27:48.224Z,10.716553
2019-03-10T00:28:57.734Z,10.746765
2019-03-10T00:30:07.280Z,10.736694
2019-03-10T00:31:16.765Z,10.736694
2019-03-10T00:32:26.273Z,10.706482
2019-03-10T00:33:35.798Z,10.716553
2019-03-10T00:34:45.308Z,10.716553
2019-03-10T00:35:54.806Z,10.68634
2019-03-10T00:37:04.341Z,10.67627
2019-03-10T00:38:13.945Z,10.706482
2019-03-10T00:39:23.463Z,10.68634
2019-03-10T00:40:32.969Z,10.706482
2019-03-10T00:41:42.495Z,10.706482
2019-03-10T00:42:52.003Z,10.67627
2019-03-10T00:44:01.496Z,10.605774
2019-03-10T00:45:11.993Z,10.625916
2019-03-10T00:46:21.510Z,10.605774
2019-03-10T00:47:31.011Z,10.595703
2019-03-10T00:48:40.528Z,10.585632
2019-03-10T00:49:50.031Z,10.565491
2019-03-10T00:50:59.536Z,10.565491
2019-03-10T00:52:09.051Z,10.595703
2019-03-10T00:53:18.554Z,10.585632
2019-03-10T00:54:29.055Z,10.585632
2019-03-10T00:55:38.566Z,10.55542
2019-03-10T00:56:48.089Z,10.585632
2019-03-10T00:57:57.600Z,10.585632
2019-03-10T00:59:07.112Z,10.565491
2019-03-10T01:00:16.622Z,10.535278
2019-03-10T01:01:26.124Z,10.525208
2019-03-10T01:02:35.655Z,10.525208
2019-03-10T01:03:45.159Z,10.525208
2019-03-10T01:04:54.667Z,10.505066
2019-03-10T01:06:04.178Z,10.484924
2019-03-10T01:07:13.696Z,10.464783
2019-03-10T01:08:23.215Z,10.444641
2019-03-10T01:09:32.712Z,10.464783
2019-03-10T01:10:42.224Z,10.464783
2019-03-10T01:11:51.751Z,10.464783
2019-03-10T01:13:01.253Z,10.464783
2019-03-10T01:14:10.756Z,10.464783
2019-03-10T01:15:20.259Z,10.444641
2019-03-10T01:16:29.770Z,10.404358
2019-03-10T01:17:39.304Z,10.384216
2019-03-10T01:18:48.812Z,10.384216
2019-03-10T01:19:58.315Z,10.414429
2019-03-10T01:21:07.822Z,10.414429
2019-03-10T01:22:17.340Z,10.4245
2019-03-10T01:23:26.848Z,10.414429
2019-03-10T01:24:36.355Z,10.384216
2019-03-10T01:25:45.863Z,10.354004
2019-03-10T01:26:55.411Z,10.333862
2019-03-10T01:28:04.960Z,10.30365
2019-03-10T01:29:14.464Z,10.263367
2019-03-10T01:30:23.973Z,10.263367
2019-03-10T01:31:33.477Z,10.30365
2019-03-10T01:32:42.998Z,10.30365
2019-03-10T01:33:52.499Z,10.313721
2019-03-10T01:35:02.011Z,10.263367
2019-03-10T01:36:11.509Z,10.233154
2019-03-10T01:37:21.029Z,10.263367
2019-03-10T01:38:30.537Z,10.263367
2019-03-10T01:39:40.033Z,10.313721
2019-03-10T01:40:49.555Z,10.30365
2019-03-10T01:41:59.072Z,10.30365
2019-03-10T01:43:08.574Z,10.30365
2019-03-10T01:44:18.080Z,10.313721
2019-03-10T01:45:27.586Z,10.343933
2019-03-10T01:46:37.089Z,10.333862
2019-03-10T01:47:46.602Z,10.343933
2019-03-10T01:48:56.103Z,10.313721
2019-03-10T01:50:05.609Z,10.313721
2019-03-10T01:51:15.110Z,10.253296
2019-03-10T01:52:24.631Z,10.223083
2019-03-10T01:53:34.132Z,10.223083
2019-03-10T01:54:43.635Z,10.233154
2019-03-10T01:55:53.143Z,10.283508
2019-03-10T01:57:02.646Z,10.30365
2019-03-10T01:58:12.168Z,10.313721
2019-03-10T01:59:21.667Z,10.283508
2019-03-10T02:00:31.178Z,10.263367
2019-03-10T02:01:40.684Z,10.253296
2019-03-10T02:02:50.206Z,10.223083
2019-03-10T02:03:59.720Z,10.192871
2019-03-10T02:05:09.223Z,10.192871
2019-03-10T02:06:18.719Z,10.223083
2019-03-10T02:07:28.243Z,10.253296
2019-03-10T02:08:37.854Z,10.263367
2019-03-10T02:09:47.359Z,10.263367
2019-03-10T02:10:56.893Z,10.233154
2019-03-10T02:12:06.397Z,10.172729
2019-03-10T02:13:15.929Z,10.172729
2019-03-10T02:14:25.447Z,10.172729
2019-03-10T02:15:34.944Z,10.132446
2019-03-10T02:16:44.457Z,10.122375
2019-03-10T02:17:53.996Z,10.072021
2019-03-10T02:19:03.510Z,10.05188
2019-03-10T02:20:13.014Z,10.092163
2019-03-10T02:21:22.537Z,10.092163
2019-03-10T02:22:32.072Z,10.092163
2019-03-10T02:23:41.585Z,10.092163
2019-03-10T02:24:51.091Z,10.122375
2019-03-10T02:26:00.595Z,10.092163
2019-03-10T02:27:10.099Z,10.092163
2019-03-10T02:28:19.635Z,10.072021
2019-03-10T02:29:29.142Z,10.072021
2019-03-10T02:30:38.646Z,10.041809
2019-03-10T02:31:48.143Z,10.041809
2019-03-10T02:32:57.680Z,9.981384
2019-03-10T02:34:07.175Z,10.011597
2019-03-10T02:35:16.675Z,10.021667
2019-03-10T02:36:26.186Z,10.072021
2019-03-10T02:37:35.714Z,10.05188
2019-03-10T02:38:45.209Z,10.05188
2019-03-10T02:39:54.717Z,10.05188
2019-03-10T02:41:04.223Z,10.05188
2019-03-10T02:42:13.763Z,10.041809
2019-03-10T02:43:23.403Z,10.072021
2019-03-10T02:44:32.927Z,10.102234
2019-03-10T02:45:42.435Z,10.122375
2019-03-10T02:46:51.930Z,10.132446
2019-03-10T02:48:01.467Z,10.102234
2019-03-10T02:49:10.971Z,10.05188
2019-03-10T02:50:20.479Z,10.021667
2019-03-10T02:51:29.986Z,10.05188
2019-03-10T02:52:39.506Z,10.092163
2019-03-10T02:53:49.032Z,10.092163
2019-03-10T02:54:58.540Z,10.102234
2019-03-10T02:56:08.041Z,10.102234
2019-03-10T02:57:17.551Z,10.092163
2019-03-10T02:58:27.060Z,10.05188
2019-03-10T02:59:37.601Z,10.05188
2019-03-10T03:00:47.182Z,10.072021
2019-03-10T03:01:56.680Z,10.102234
2019-03-10T03:03:06.202Z,10.072021
2019-03-10T03:04:15.711Z,10.05188
2019-03-10T03:05:25.218Z,10.011597
2019-03-10T03:06:34.726Z,10.011597
2019-03-10T03:07:45.250Z,9.981384
2019-03-10T03:08:54.758Z,9.981384
2019-03-10T03:10:04.282Z,9.951172
2019-03-10T03:11:13.783Z,9.971313
2019-03-10T03:12:23.288Z,9.971313
2019-03-10T03:13:32.802Z,10.011597
2019-03-10T03:14:42.309Z,10.011597
2019-03-10T03:15:51.885Z,10.041809
2019-03-10T03:17:01.540Z,10.072021
2019-03-10T03:18:10.975Z,10.102234
2019-03-10T03:19:20.496Z,10.072021
2019-03-10T03:20:30.025Z,10.05188
2019-03-10T03:21:43.335Z,10.05188
2019-03-10T03:22:49.061Z,10.072021
2019-03-10T03:23:58.562Z,10.072021
2019-03-10T03:25:08.091Z,10.092163
2019-03-10T03:26:17.611Z,10.092163
2019-03-10T03:27:27.117Z,10.162659
2019-03-10T03:28:36.628Z,10.223083
2019-03-10T03:29:46.139Z,10.233154
2019-03-10T03:30:55.758Z,10.384216
2019-03-10T03:32:05.239Z,10.444641
2019-03-10T03:33:14.768Z,10.535278
2019-03-10T03:34:24.266Z,10.595703
2019-03-10T03:35:33.792Z,10.635986
2019-03-10T03:36:43.340Z,10.68634
2019-03-10T03:37:52.827Z,10.736694
2019-03-10T03:39:02.333Z,10.80719
2019-03-10T03:40:11.881Z,10.817261
2019-03-10T03:41:21.346Z,10.837402
2019-03-10T03:42:30.864Z,10.746765
2019-03-10T03:43:40.386Z,10.625916
2019-03-10T03:44:49.897Z,10.444641
2019-03-10T03:45:59.404Z,10.192871
2019-03-10T03:47:08.925Z,9.890747
2019-03-10T03:48:18.440Z,9.719543
2019-03-10T03:49:27.947Z,9.608765
2019-03-10T03:50:38.466Z,9.588623
2019-03-10T03:51:47.975Z,9.467773
2019-03-10T03:52:57.486Z,9.387207
2019-03-10T03:54:07.040Z,9.276428
2019-03-10T03:55:16.549Z,9.125366
2019-03-10T03:56:26.081Z,8.823242
2019-03-10T03:57:35.585Z,8.662109
2019-03-10T03:58:45.151Z,8.561401
2019-03-10T03:59:54.735Z,8.450623
2019-03-10T04:01:04.239Z,8.410339
2019-03-10T04:02:13.766Z,8.309631
2019-03-10T04:03:23.268Z,8.239136
2019-03-10T04:04:32.799Z,8.198853
2019-03-10T04:05:42.305Z,8.178711
2019-03-10T04:06:51.821Z,8.148499
2019-03-10T04:08:01.326Z,8.098145
2019-03-10T04:09:10.850Z,8.078003
2019-03-10T04:10:20.445Z,8.078003
2019-03-10T04:11:29.983Z,8.027649
2019-03-10T04:12:39.481Z,7.967224
2019-03-10T04:13:49.005Z,7.947083
2019-03-10T04:14:58.507Z,7.906799
2019-03-10T04:16:08.036Z,7.906799
2019-03-10T04:17:17.542Z,7.926941
2019-03-10T04:18:27.106Z,7.926941
2019-03-10T04:19:36.608Z,7.967224
2019-03-10T04:20:46.109Z,7.937012
2019-03-10T04:21:55.647Z,7.896729
2019-03-10T04:23:05.181Z,7.896729
2019-03-10T04:24:14.717Z,7.896729
2019-03-10T04:25:24.229Z,7.866516
2019-03-10T04:26:33.728Z,7.826233
2019-03-10T04:27:43.236Z,7.816162
2019-03-10T04:28:52.766Z,7.846375
2019-03-10T04:30:02.340Z,7.846375
2019-03-10T04:31:11.849Z,7.826233
2019-03-10T04:32:21.356Z,7.826233
2019-03-10T04:33:30.868Z,7.816162
2019-03-10T04:34:40.409Z,7.78595
2019-03-10T04:35:49.911Z,7.755737
2019-03-10T04:37:00.432Z,7.725525
2019-03-10T04:38:09.937Z,7.685242
2019-03-10T04:39:19.457Z,7.655029
2019-03-10T04:40:28.977Z,7.634888
2019-03-10T04:41:38.484Z,7.604675
2019-03-10T04:42:47.986Z,7.574463
2019-03-10T04:43:57.521Z,7.574463
2019-03-10T04:45:07.080Z,7.53418
2019-03-10T04:46:16.591Z,7.503967
2019-03-10T04:47:26.097Z,7.453613
2019-03-10T04:48:35.602Z,7.403259
2019-03-10T04:49:45.144Z,7.383118
2019-03-10T04:50:54.667Z,7.332764
2019-03-10T04:52:04.188Z,7.29248
2019-03-10T04:53:13.691Z,7.242126
2019-03-10T04:54:23.218Z,7.211914
2019-03-10T04:55:32.722Z,7.181702
2019-03-10T04:56:42.234Z,7.151489
2019-03-10T04:57:51.825Z,7.101135
2019-03-10T04:59:01.332Z,7.060852
2019-03-10T05:00:10.861Z,7.050781
2019-03-10T05:01:20.366Z,7.03064
2019-03-10T05:02:29.874Z,7.000427
2019-03-10T05:03:39.442Z,6.970215
2019-03-10T05:04:48.906Z,6.960144
2019-03-10T05:05:58.421Z,6.950073
2019-03-10T05:07:07.935Z,6.929932
2019-03-10T05:08:17.454Z,6.919861
2019-03-10T05:09:26.971Z,6.889648
2019-03-10T05:10:36.506Z,6.879578
2019-03-10T05:11:46.023Z,6.879578
2019-03-10T05:12:55.527Z,6.869507
2019-03-10T05:14:05.066Z,6.849365
2019-03-10T05:15:14.635Z,6.839294
2019-03-10T05:16:24.149Z,6.819153
2019-03-10T05:17:33.654Z,6.839294
2019-03-10T05:18:43.210Z,6.819153
2019-03-10T05:19:52.731Z,6.839294
2019-03-10T05:21:02.239Z,6.819153
2019-03-10T05:22:11.744Z,6.809082
2019-03-10T05:23:21.249Z,6.819153
2019-03-10T05:24:30.773Z,6.78894
2019-03-10T05:25:40.319Z,6.919861
2019-03-10T05:26:49.820Z,7.020569
2019-03-10T05:27:59.332Z,7.03064
2019-03-10T05:29:08.847Z,7.03064
2019-03-10T05:30:18.413Z,7.000427
2019-03-10T05:31:27.922Z,6.990356
2019-03-10T05:32:37.429Z,6.970215
2019-03-10T05:33:46.933Z,6.950073
2019-03-10T05:34:56.461Z,6.950073
2019-03-10T05:36:05.984Z,6.919861
2019-03-10T05:37:15.553Z,6.889648
2019-03-10T05:38:25.014Z,6.849365
2019-03-10T05:39:34.557Z,6.819153
2019-03-10T05:40:44.108Z,6.819153
2019-03-10T05:41:53.619Z,6.78894
2019-03-10T05:43:03.154Z,6.78894
2019-03-10T05:44:12.664Z,6.78894
2019-03-10T05:45:22.246Z,6.78894
2019-03-10T05:46:31.754Z,6.78894
2019-03-10T05:47:41.284Z,6.77887
2019-03-10T05:48:50.790Z,6.77887
2019-03-10T05:50:00.358Z,6.748657
2019-03-10T05:51:09.856Z,6.77887
2019-03-10T05:52:19.359Z,6.768799
2019-03-10T05:53:28.879Z,6.77887
2019-03-10T05:54:38.429Z,6.768799
2019-03-10T05:55:47.954Z,6.77887
2019-03-10T05:56:57.474Z,6.78894
2019-03-10T05:58:06.977Z,6.78894
2019-03-10T05:59:16.488Z,6.78894
2019-03-10T06:00:26.046Z,6.819153
2019-03-10T06:01:36.535Z,6.839294
2019-03-10T06:02:46.084Z,6.849365
2019-03-10T06:03:55.559Z,6.869507
2019-03-10T06:05:06.004Z,6.879578
2019-03-10T06:06:14.614Z,6.889648
2019-03-10T06:07:24.128Z,6.889648
2019-03-10T06:08:33.649Z,6.889648
2019-03-10T06:09:43.170Z,6.929932
2019-03-10T06:10:52.748Z,6.929932
2019-03-10T06:12:02.267Z,6.929932
2019-03-10T06:13:11.774Z,6.919861
2019-03-10T06:14:21.272Z,6.889648
2019-03-10T06:15:30.806Z,6.889648
2019-03-10T06:16:40.374Z,6.879578
2019-03-10T06:17:49.876Z,6.869507
2019-03-10T06:18:59.384Z,6.849365
2019-03-10T06:20:09.921Z,6.839294
2019-03-10T06:21:19.435Z,6.869507
2019-03-10T06:22:28.948Z,6.849365
2019-03-10T06:23:38.468Z,6.849365
2019-03-10T06:24:47.968Z,6.849365
2019-03-10T06:25:57.520Z,6.869507
2019-03-10T06:27:07.032Z,6.869507
2019-03-10T06:28:16.538Z,6.879578
2019-03-10T06:29:26.053Z,6.879578
2019-03-10T06:30:35.615Z,6.889648
2019-03-10T06:31:46.123Z,6.889648
2019-03-10T06:32:55.630Z,6.929932
2019-03-10T06:34:05.139Z,6.950073
2019-03-10T06:35:14.659Z,6.950073
2019-03-10T06:36:24.170Z,6.950073
2019-03-10T06:37:33.689Z,6.960144
2019-03-10T06:38:43.194Z,6.970215
2019-03-10T06:39:52.698Z,6.990356
2019-03-10T06:41:02.268Z,6.990356
2019-03-10T06:42:11.775Z,6.990356
2019-03-10T06:43:21.298Z,7.020569
2019-03-10T06:44:30.812Z,7.03064
2019-03-10T06:45:40.333Z,7.020569
2019-03-10T06:46:49.839Z,7.03064
2019-03-10T06:47:59.463Z,7.050781
2019-03-10T06:49:08.979Z,7.060852
2019-03-10T06:50:18.538Z,7.070923
2019-03-10T06:51:28.051Z,7.101135
2019-03-10T06:52:37.556Z,7.111206
2019-03-10T06:53:47.061Z,7.131348
2019-03-10T06:54:56.571Z,7.151489
2019-03-10T06:56:06.091Z,7.151489
2019-03-10T06:57:15.601Z,7.151489
2019-03-10T06:58:25.118Z,7.181702
2019-03-10T06:59:34.624Z,7.171631
2019-03-10T07:00:44.151Z,7.181702
2019-03-10T07:01:53.660Z,7.181702
2019-03-10T07:03:04.159Z,7.211914
2019-03-10T07:04:13.664Z,7.232056
2019-03-10T07:05:23.190Z,7.252197
2019-03-10T07:06:32.699Z,7.28241
2019-03-10T07:07:42.206Z,7.312622
2019-03-10T07:08:51.718Z,7.352905
2019-03-10T07:10:01.226Z,7.352905
2019-03-10T07:11:10.742Z,7.362976
2019-03-10T07:12:20.256Z,7.383118
2019-03-10T07:13:29.777Z,7.393188
2019-03-10T07:14:40.274Z,7.403259
2019-03-10T07:15:49.808Z,7.433472
2019-03-10T07:16:59.314Z,7.433472
2019-03-10T07:18:08.819Z,7.453613
2019-03-10T07:19:18.329Z,7.453613
2019-03-10T07:20:27.855Z,7.473755
2019-03-10T07:21:37.377Z,7.483826
2019-03-10T07:22:46.882Z,7.514038
2019-03-10T07:23:56.394Z,7.514038
2019-03-10T07:25:05.908Z,7.54425
2019-03-10T07:26:15.428Z,7.54425
2019-03-10T07:27:24.954Z,7.564392
2019-03-10T07:28:34.466Z,7.584534
2019-03-10T07:29:43.969Z,7.604675
2019-03-10T07:30:53.538Z,7.634888
2019-03-10T07:32:03.047Z,7.6651
2019-03-10T07:33:12.554Z,7.695312
2019-03-10T07:34:22.104Z,7.725525
2019-03-10T07:35:31.609Z,7.755737
2019-03-10T07:36:41.187Z,7.796021
2019-03-10T07:37:50.685Z,7.826233
2019-03-10T07:39:00.210Z,7.866516
2019-03-10T07:40:09.722Z,7.906799
2019-03-10T07:41:19.252Z,7.937012
2019-03-10T07:42:28.773Z,7.967224
2019-03-10T07:43:38.282Z,7.997437
2019-03-10T07:44:47.793Z,8.007507
2019-03-10T07:45:57.316Z,8.088074
2019-03-10T07:47:06.839Z,8.098145
2019-03-10T07:48:16.349Z,8.098145
2019-03-10T07:49:25.861Z,8.148499
2019-03-10T07:50:35.371Z,8.178711
2019-03-10T07:51:44.936Z,8.239136
2019-03-10T07:52:54.485Z,8.269348
2019-03-10T07:54:03.987Z,8.339844
2019-03-10T07:55:13.506Z,8.410339
2019-03-10T07:56:23.025Z,8.460693
2019-03-10T07:57:32.557Z,8.531189
2019-03-10T07:58:42.088Z,8.631897
2019-03-10T07:59:51.603Z,8.712463
2019-03-10T08:01:01.118Z,8.813171
2019-03-10T08:02:11.657Z,8.893738
2019-03-10T08:03:21.191Z,8.974304
2019-03-10T08:04:30.690Z,9.105225
2019-03-10T08:05:40.195Z,9.276428
2019-03-10T08:06:49.725Z,9.397278
2019-03-10T08:07:59.226Z,9.497986
2019-03-10T08:09:08.739Z,9.608765
2019-03-10T08:10:18.237Z,9.719543
2019-03-10T08:11:27.758Z,9.830322
2019-03-10T08:12:37.269Z,9.951172
2019-03-10T08:13:46.784Z,10.041809
2019-03-10T08:14:56.302Z,10.192871
2019-03-10T08:16:05.802Z,10.333862
2019-03-10T08:17:15.328Z,10.484924
2019-03-10T08:18:25.844Z,10.55542
2019-03-10T08:19:35.352Z,10.635986
2019-03-10T08:20:44.878Z,10.787048
2019-03-10T08:21:54.442Z,10.93811
2019-03-10T08:23:04.021Z,11.119385
2019-03-10T08:24:14.662Z,11.18988
2019-03-10T08:25:24.236Z,11.250305
2019-03-10T08:26:33.835Z,11.270447
2019-03-10T08:27:43.351Z,11.290588
2019-03-10T08:28:53.852Z,11.401367
2019-03-10T08:30:03.370Z,11.43158
2019-03-10T08:31:12.876Z,11.471863
2019-03-10T08:32:22.409Z,11.512146
2019-03-10T08:33:31.911Z,11.512146
2019-03-10T08:34:41.437Z,11.542358
2019-03-10T08:35:50.937Z,11.542358
2019-03-10T08:37:00.459Z,11.522217
2019-03-10T08:38:09.965Z,11.552429
2019-03-10T08:39:19.472Z,11.552429
2019-03-10T08:40:28.979Z,11.572571
2019-03-10T08:41:38.532Z,11.622925
2019-03-10T08:42:49.556Z,11.663208
2019-03-10T08:43:57.552Z,11.68335
2019-03-10T08:45:07.052Z,11.663208
2019-03-10T08:46:16.565Z,11.68335
2019-03-10T08:47:26.097Z,11.784058
2019-03-10T08:48:35.609Z,11.864624
2019-03-10T08:49:45.655Z,11.874695
2019-03-10T08:50:54.653Z,11.864624
2019-03-10T08:52:04.218Z,11.864624
2019-03-10T08:53:13.729Z,11.874695
2019-03-10T08:54:23.234Z,11.874695
2019-03-10T08:55:32.748Z,11.874695
2019-03-10T08:56:42.248Z,11.904907
2019-03-10T08:57:51.791Z,11.884766
2019-03-10T08:59:01.296Z,11.804199
2019-03-10T09:00:10.806Z,11.723633
2019-03-10T09:01:20.318Z,11.784058
2019-03-10T09:02:29.838Z,11.834412
2019-03-10T09:03:39.341Z,11.804199
2019-03-10T09:04:48.844Z,11.753845
2019-03-10T09:05:58.368Z,11.753845
2019-03-10T09:07:07.896Z,11.723633
2019-03-10T09:08:17.401Z,11.81427
2019-03-10T09:09:26.909Z,11.804199
2019-03-10T09:10:36.424Z,11.753845
2019-03-10T09:11:45.928Z,11.834412
2019-03-10T09:12:55.458Z,11.753845
2019-03-10T09:14:04.968Z,11.723633
2019-03-10T09:15:14.477Z,11.69342
2019-03-10T09:16:23.989Z,11.68335
2019-03-10T09:17:33.528Z,11.804199
2019-03-10T09:18:43.030Z,11.834412
2019-03-10T09:19:53.526Z,11.834412
2019-03-10T09:21:03.040Z,11.884766
2019-03-10T09:22:12.556Z,11.784058
2019-03-10T09:23:22.090Z,11.653137
2019-03-10T09:24:31.639Z,11.632996
2019-03-10T09:25:41.154Z,11.602783
2019-03-10T09:26:50.658Z,11.622925
2019-03-10T09:28:00.172Z,11.542358
2019-03-10T09:29:09.711Z,11.552429
2019-03-10T09:30:19.220Z,11.653137
2019-03-10T09:31:28.736Z,11.572571
2019-03-10T09:32:38.259Z,11.552429
2019-03-10T09:33:47.798Z,11.542358
2019-03-10T09:34:57.298Z,11.471863
2019-03-10T09:36:06.864Z,11.451721
2019-03-10T09:37:16.397Z,11.512146
2019-03-10T09:38:25.938Z,11.512146
2019-03-10T09:39:35.447Z,11.44165
2019-03-10T09:40:44.965Z,11.371155
2019-03-10T09:41:54.502Z,11.371155
2019-03-10T09:43:04.019Z,11.411438
2019-03-10T09:44:13.537Z,11.320801
2019-03-10T09:45:23.057Z,11.290588
2019-03-10T09:46:32.580Z,11.351013
2019-03-10T09:47:42.118Z,11.300659
2019-03-10T09:48:51.636Z,11.260376
2019-03-10T09:50:01.148Z,11.149597
2019-03-10T09:51:10.688Z,11.149597
2019-03-10T09:52:20.208Z,11.17981
2019-03-10T09:53:29.724Z,11.330872
2019-03-10T09:54:39.244Z,11.44165
2019-03-10T09:55:48.757Z,11.43158
2019-03-10T09:56:58.282Z,11.371155
2019-03-10T09:58:07.815Z,11.351013
2019-03-10T09:59:17.323Z,11.361084
2019-03-10T10:00:26.837Z,11.330872
2019-03-10T10:01:36.435Z,11.270447
2019-03-10T10:02:45.941Z,11.260376
2019-03-10T10:03:55.480Z,11.220093
2019-03-10T10:05:05.018Z,11.079102
2019-03-10T10:06:14.521Z,10.988464
2019-03-10T10:07:24.041Z,10.917969
2019-03-10T10:08:33.568Z,10.887756
2019-03-10T10:09:43.077Z,10.776978
2019-03-10T10:10:52.590Z,10.67627
2019-03-10T10:12:12.651Z,10.595703
2019-03-10T10:13:12.607Z,10.595703
2019-03-10T10:14:22.129Z,10.55542
2019-03-10T10:15:31.647Z,10.535278
2019-03-10T10:16:41.165Z,10.525208
2019-03-10T10:17:50.677Z,10.565491
2019-03-10T10:19:00.231Z,10.55542
2019-03-10T10:20:09.750Z,10.535278
2019-03-10T10:21:19.258Z,10.525208
2019-03-10T10:22:28.767Z,10.505066
2019-03-10T10:23:38.292Z,10.484924
2019-03-10T10:24:47.821Z,10.505066
2019-03-10T10:25:57.335Z,10.525208
2019-03-10T10:27:06.853Z,10.505066
2019-03-10T10:28:16.385Z,10.484924
2019-03-10T10:29:25.922Z,10.464783
2019-03-10T10:30:35.442Z,10.464783
2019-03-10T10:31:44.943Z,10.464783
2019-03-10T10:32:54.459Z,10.4245
2019-03-10T10:34:03.983Z,10.444641
2019-03-10T10:35:13.507Z,10.414429
2019-03-10T10:36:23.015Z,10.414429
2019-03-10T10:37:32.567Z,10.414429
2019-03-10T10:38:42.091Z,10.354004
2019-03-10T10:39:51.609Z,10.283508
2019-03-10T10:41:01.125Z,10.223083
2019-03-10T10:42:10.664Z,10.223083
2019-03-10T10:43:20.183Z,10.263367
2019-03-10T10:44:29.734Z,10.30365
2019-03-10T10:45:39.251Z,10.283508
2019-03-10T10:46:48.758Z,10.253296
2019-03-10T10:47:58.296Z,10.233154
2019-03-10T10:49:07.836Z,10.192871
2019-03-10T10:50:17.347Z,10.132446
2019-03-10T10:51:26.853Z,10.122375
2019-03-10T10:52:35.366Z,10.152588
2019-03-10T10:53:44.886Z,10.132446
2019-03-10T10:54:54.400Z,10.102234
2019-03-10T10:56:03.922Z,10.122375
2019-03-10T10:57:13.412Z,10.132446
2019-03-10T10:58:22.929Z,10.122375
2019-03-10T10:59:32.450Z,10.172729
2019-03-10T11:00:41.971Z,10.192871
2019-03-10T11:01:51.474Z,10.202942
2019-03-10T11:03:01.044Z,10.233154
2019-03-10T11:04:10.524Z,10.283508
2019-03-10T11:05:20.032Z,10.313721
2019-03-10T11:06:29.551Z,10.30365
2019-03-10T11:07:39.059Z,10.30365
2019-03-10T11:08:48.588Z,10.313721
2019-03-10T11:09:58.102Z,10.30365
2019-03-10T11:11:07.623Z,10.313721
2019-03-10T11:12:17.137Z,10.404358
2019-03-10T11:13:26.649Z,10.4245
2019-03-10T11:14:36.175Z,10.444641
2019-03-10T11:15:45.690Z,10.494995
2019-03-10T11:16:55.201Z,10.535278
2019-03-10T11:18:09.147Z,10.585632
2019-03-10T11:19:14.230Z,10.565491
2019-03-10T11:20:23.741Z,10.585632
2019-03-10T11:21:33.265Z,10.595703
2019-03-10T11:22:42.789Z,10.605774
2019-03-10T11:23:52.315Z,10.585632
2019-03-10T11:25:01.822Z,10.535278
2019-03-10T11:26:11.334Z,10.494995
2019-03-10T11:27:20.869Z,10.464783
2019-03-10T11:28:30.383Z,10.444641
2019-03-10T11:29:39.908Z,10.494995
2019-03-10T11:30:49.431Z,10.55542
2019-03-10T11:31:58.969Z,10.625916
2019-03-10T11:33:08.478Z,10.68634
2019-03-10T11:34:18.020Z,10.746765
2019-03-10T11:35:27.529Z,10.857544
2019-03-10T11:36:37.036Z,10.917969
2019-03-10T11:37:46.553Z,10.897827
2019-03-10T11:38:56.080Z,10.968323
2019-03-10T11:40:05.586Z,10.958252
2019-03-10T11:41:15.097Z,11.038818
2019-03-10T11:42:25.603Z,11.038818
2019-03-10T11:43:35.677Z,11.038818
2019-03-10T11:44:45.197Z,11.079102
2019-03-10T11:45:54.708Z,11.109314
2019-03-10T11:47:04.205Z,11.149597
2019-03-10T11:48:13.730Z,11.18988
2019-03-10T11:49:23.258Z,11.18988
2019-03-10T11:50:32.769Z,11.260376
2019-03-10T11:51:42.296Z,11.320801
2019-03-10T11:52:51.822Z,11.43158
2019-03-10T11:54:01.365Z,11.522217
2019-03-10T11:55:11.018Z,11.622925
2019-03-10T11:56:20.403Z,11.663208
2019-03-10T11:57:29.938Z,11.632996
2019-03-10T11:58:39.457Z,11.632996
2019-03-10T11:59:48.981Z,11.632996
2019-03-10T12:00:58.479Z,11.622925
2019-03-10T12:02:15.773Z,11.69342
2019-03-10T12:03:17.486Z,11.784058
2019-03-10T12:04:27.013Z,11.844482
2019-03-10T12:05:36.536Z,11.94519
2019-03-10T12:06:46.045Z,11.94519
2019-03-10T12:07:55.556Z,11.965332
2019-03-10T12:09:05.069Z,11.914978
2019-03-10T12:10:14.602Z,11.864624
2019-03-10T12:11:24.115Z,11.844482
2019-03-10T12:12:33.631Z,11.844482
2019-03-10T12:13:43.142Z,11.834412
2019-03-10T12:14:52.678Z,11.703491
2019-03-10T12:16:02.189Z,11.653137
2019-03-10T12:17:11.741Z,11.653137
2019-03-10T12:18:21.266Z,11.632996
2019-03-10T12:19:30.799Z,11.663208
2019-03-10T12:20:40.311Z,11.663208
2019-03-10T12:21:49.835Z,11.723633
2019-03-10T12:22:59.337Z,11.81427
2019-03-10T12:24:08.846Z,11.904907
2019-03-10T12:25:18.372Z,12.035828
2019-03-10T12:26:27.882Z,12.166748
2019-03-10T12:27:37.414Z,12.19696
2019-03-10T12:28:46.933Z,12.287598
2019-03-10T12:29:56.474Z,12.368164
2019-03-10T12:31:05.991Z,12.549438
2019-03-10T12:32:15.507Z,12.972412
2019-03-10T12:33:25.024Z,13.415527
2019-03-10T12:34:34.558Z,14.039917
2019-03-10T12:35:44.078Z,14.372253
2019-03-10T12:36:53.611Z,13.858643
2019-03-10T12:38:03.122Z,13.737793
2019-03-10T12:39:12.651Z,14.352112
2019-03-10T12:40:22.177Z,14.553528
2019-03-10T12:41:31.694Z,14.45282
2019-03-10T12:42:41.209Z,14.442749
2019-03-10T12:43:50.731Z,15.268555
2019-03-10T12:45:00.471Z,14.634094
2019-03-10T12:46:09.788Z,14.180908
2019-03-10T12:47:19.297Z,14.281616
2019-03-10T12:48:28.821Z,14.049988
2019-03-10T12:49:38.335Z,13.737793
2019-03-10T12:50:47.858Z,13.707581
2019-03-10T12:51:57.376Z,13.556519
2019-03-10T12:53:06.916Z,13.465881
2019-03-10T12:54:16.421Z,13.536377
2019-03-10T12:55:25.941Z,13.536377
2019-03-10T12:56:35.454Z,13.737793
2019-03-10T12:57:44.959Z,13.707581
2019-03-10T12:58:54.468Z,13.737793
2019-03-10T13:00:03.993Z,13.747864
2019-03-10T13:01:14.501Z,13.788147
2019-03-10T13:02:24.009Z,13.778076
2019-03-10T13:03:33.587Z,14.221191
2019-03-10T13:04:43.030Z,15.057068
2019-03-10T13:05:53.573Z,14.503174
2019-03-10T13:07:03.069Z,14.261475
2019-03-10T13:08:12.585Z,14.110413
2019-03-10T13:09:22.094Z,13.898926
2019-03-10T13:10:31.668Z,13.808289
2019-03-10T13:11:41.179Z,13.707581
2019-03-10T13:12:50.698Z,13.616943
2019-03-10T13:14:00.217Z,13.596802
2019-03-10T13:15:09.747Z,13.556519
2019-03-10T13:16:19.274Z,13.496094
2019-03-10T13:17:28.795Z,13.536377
2019-03-10T13:18:38.311Z,13.556519
2019-03-10T13:19:47.826Z,13.677368
2019-03-10T13:20:57.386Z,13.677368
2019-03-10T13:22:06.886Z,14.483032
2019-03-10T13:23:16.410Z,14.634094
2019-03-10T13:24:25.923Z,14.301758